sensor_id;sensor_type;location;lat;lon;timestamp;pressure;altitude;pressure_sealevel;temperature;humidity
59168;BME280;44948;55.046;73.266;2022-07-10T00:00:01;100028.19;;;22.62;54.91
59168;BME280;44948;55.046;73.266;2022-07-10T00:01:54;100011.22;;;22.55;54.67
59168;BME280;44948;55.046;73.266;2022-07-10T00:03:36;99989.28;;;22.38;54.66
59168;BME280;44948;55.046;73.266;2022-07-10T00:05:23;99999.09;;;22.53;54.38
59168;BME280;44948;55.046;73.266;2022-07-10T00:07:05;100016.47;;;22.63;54.30
59168;BME280;44948;55.046;73.266;2022-07-10T00:08:47;99982.53;;;22.42;54.73
59168;BME280;44948;55.046;73.266;2022-07-10T00:10:30;100014.72;;;22.56;54.68
59168;BME280;44948;55.046;73.266;2022-07-10T00:12:12;99980.25;;;22.39;54.86
59168;BME280;44948;55.046;73.266;2022-07-10T00:13:55;100010.69;;;22.60;54.48
59168;BME280;44948;55.046;73.266;2022-07-10T00:15:40;100008.63;;;22.62;54.71
59168;BME280;44948;55.046;73.266;2022-07-10T00:17:23;99967.66;;;22.33;54.80
59168;BME280;44948;55.046;73.266;2022-07-10T00:19:05;99992.41;;;22.42;55.29
59168;BME280;44948;55.046;73.266;2022-07-10T00:20:52;100033.41;;;22.70;54.91
59168;BME280;44948;55.046;73.266;2022-07-10T00:22:38;100020.84;;;22.71;55.56
59168;BME280;44948;55.046;73.266;2022-07-10T00:24:21;100033.84;;;22.74;55.28
59168;BME280;44948;55.046;73.266;2022-07-10T00:26:09;99975.94;;;22.38;55.26
59168;BME280;44948;55.046;73.266;2022-07-10T00:27:51;100003.59;;;22.52;55.02
59168;BME280;44948;55.046;73.266;2022-07-10T00:29:34;99961.03;;;22.29;55.13
59168;BME280;44948;55.046;73.266;2022-07-10T00:31:21;100029.34;;;22.81;55.09
59168;BME280;44948;55.046;73.266;2022-07-10T00:33:03;100038.50;;;22.51;55.71
59168;BME280;44948;55.046;73.266;2022-07-10T00:34:46;99977.97;;;22.36;55.50
59168;BME280;44948;55.046;73.266;2022-07-10T00:36:28;100031.41;;;22.79;55.87
59168;BME280;44948;55.046;73.266;2022-07-10T00:38:13;100035.84;;;22.93;55.13
59168;BME280;44948;55.046;73.266;2022-07-10T00:39:59;100037.03;;;22.63;55.31
59168;BME280;44948;55.046;73.266;2022-07-10T00:41:42;100040.31;;;22.86;54.56
59168;BME280;44948;55.046;73.266;2022-07-10T00:43:24;100019.06;;;22.78;54.29
59168;BME280;44948;55.046;73.266;2022-07-10T00:45:10;100030.25;;;22.88;54.22
59168;BME280;44948;55.046;73.266;2022-07-10T00:46:56;100040.78;;;22.96;53.92
59168;BME280;44948;55.046;73.266;2022-07-10T00:48:38;100038.50;;;22.93;53.49
59168;BME280;44948;55.046;73.266;2022-07-10T00:50:20;100039.75;;;22.97;53.85
59168;BME280;44948;55.046;73.266;2022-07-10T00:52:07;100037.53;;;23.01;53.93
59168;BME280;44948;55.046;73.266;2022-07-10T00:53:52;100037.34;;;23.03;53.92
59168;BME280;44948;55.046;73.266;2022-07-10T00:55:36;100033.00;;;23.01;53.87
59168;BME280;44948;55.046;73.266;2022-07-10T00:57:20;100035.66;;;23.01;53.73
59168;BME280;44948;55.046;73.266;2022-07-10T00:59:04;100032.84;;;23.03;53.79
59168;BME280;44948;55.046;73.266;2022-07-10T01:00:49;100006.56;;;22.85;53.55
59168;BME280;44948;55.046;73.266;2022-07-10T01:02:32;100034.03;;;23.00;53.69
59168;BME280;44948;55.046;73.266;2022-07-10T01:04:14;99938.13;;;22.41;54.65
59168;BME280;44948;55.046;73.266;2022-07-10T01:05:57;100030.31;;;23.01;53.98
59168;BME280;44948;55.046;73.266;2022-07-10T01:07:40;100008.06;;;22.94;53.52
59168;BME280;44948;55.046;73.266;2022-07-10T01:09:26;100014.28;;;23.01;54.11
59168;BME280;44948;55.046;73.266;2022-07-10T01:11:09;100018.88;;;23.08;53.60
59168;BME280;44948;55.046;73.266;2022-07-10T01:12:52;100040.34;;;23.21;53.87
59168;BME280;44948;55.046;73.266;2022-07-10T01:14:36;100027.19;;;23.19;54.19
59168;BME280;44948;55.046;73.266;2022-07-10T01:16:25;99944.59;;;22.75;54.50
59168;BME280;44948;55.046;73.266;2022-07-10T01:18:16;99952.06;;;22.86;54.31
59168;BME280;44948;55.046;73.266;2022-07-10T01:20:07;100023.75;;;23.32;54.15
59168;BME280;44948;55.046;73.266;2022-07-10T01:21:49;99995.50;;;23.23;53.84
59168;BME280;44948;55.046;73.266;2022-07-10T01:23:32;100033.69;;;23.38;53.74
59168;BME280;44948;55.046;73.266;2022-07-10T01:25:14;100033.06;;;23.36;53.84
59168;BME280;44948;55.046;73.266;2022-07-10T01:26:57;99998.41;;;23.28;53.76
59168;BME280;44948;55.046;73.266;2022-07-10T01:28:39;100015.72;;;23.32;53.75
59168;BME280;44948;55.046;73.266;2022-07-10T01:30:21;100016.34;;;23.34;54.28
59168;BME280;44948;55.046;73.266;2022-07-10T01:32:07;100021.16;;;23.45;54.62
59168;BME280;44948;55.046;73.266;2022-07-10T01:33:49;100002.97;;;23.34;54.59
59168;BME280;44948;55.046;73.266;2022-07-10T01:35:32;100029.84;;;23.19;54.99
59168;BME280;44948;55.046;73.266;2022-07-10T01:37:14;100005.03;;;23.32;54.67
59168;BME280;44948;55.046;73.266;2022-07-10T01:38:58;100021.38;;;23.50;53.96
59168;BME280;44948;55.046;73.266;2022-07-10T01:40:43;100023.91;;;23.58;54.15
59168;BME280;44948;55.046;73.266;2022-07-10T01:42:25;100018.75;;;23.57;55.37
59168;BME280;44948;55.046;73.266;2022-07-10T01:44:07;99972.75;;;23.40;55.63
59168;BME280;44948;55.046;73.266;2022-07-10T01:45:50;99960.16;;;23.34;54.37
59168;BME280;44948;55.046;73.266;2022-07-10T01:47:33;99992.81;;;23.57;53.94
59168;BME280;44948;55.046;73.266;2022-07-10T01:49:18;100026.25;;;23.81;54.60
59168;BME280;44948;55.046;73.266;2022-07-10T01:51:05;100030.38;;;23.84;53.67
59168;BME280;44948;55.046;73.266;2022-07-10T01:52:48;100012.66;;;23.76;53.76
59168;BME280;44948;55.046;73.266;2022-07-10T01:54:32;100000.09;;;23.70;54.04
59168;BME280;44948;55.046;73.266;2022-07-10T01:56:18;100022.19;;;23.92;54.29
59168;BME280;44948;55.046;73.266;2022-07-10T01:58:03;100014.16;;;23.92;53.77
59168;BME280;44948;55.046;73.266;2022-07-10T01:59:48;99990.00;;;23.79;53.68
59168;BME280;44948;55.046;73.266;2022-07-10T02:01:31;100031.53;;;24.09;53.21
59168;BME280;44948;55.046;73.266;2022-07-10T02:03:14;100035.47;;;24.13;53.30
59168;BME280;44948;55.046;73.266;2022-07-10T02:05:15;99978.88;;;23.75;53.52
59168;BME280;44948;55.046;73.266;2022-07-10T02:06:58;100006.53;;;23.96;53.57
59168;BME280;44948;55.046;73.266;2022-07-10T02:08:41;100029.28;;;24.06;53.30
59168;BME280;44948;55.046;73.266;2022-07-10T02:10:26;100004.91;;;24.01;53.35
59168;BME280;44948;55.046;73.266;2022-07-10T02:12:10;100031.38;;;24.24;54.48
59168;BME280;44948;55.046;73.266;2022-07-10T02:13:56;100044.97;;;24.36;52.93
59168;BME280;44948;55.046;73.266;2022-07-10T02:15:41;100036.94;;;24.36;52.01
59168;BME280;44948;55.046;73.266;2022-07-10T02:17:23;100030.13;;;24.27;53.05
59168;BME280;44948;55.046;73.266;2022-07-10T02:19:09;100018.97;;;24.16;52.81
59168;BME280;44948;55.046;73.266;2022-07-10T02:20:52;100051.81;;;24.45;52.70
59168;BME280;44948;55.046;73.266;2022-07-10T02:22:35;100021.28;;;24.33;54.37
59168;BME280;44948;55.046;73.266;2022-07-10T02:24:20;100033.66;;;24.47;53.79
59168;BME280;44948;55.046;73.266;2022-07-10T02:26:08;100052.03;;;24.63;53.26
59168;BME280;44948;55.046;73.266;2022-07-10T02:27:50;99983.56;;;24.21;52.36
59168;BME280;44948;55.046;73.266;2022-07-10T02:29:35;99977.38;;;24.21;52.60
59168;BME280;44948;55.046;73.266;2022-07-10T02:31:19;100057.88;;;24.73;52.77
59168;BME280;44948;55.046;73.266;2022-07-10T02:33:02;99998.41;;;24.37;52.59
59168;BME280;44948;55.046;73.266;2022-07-10T02:34:45;100054.34;;;24.79;52.52
59168;BME280;44948;55.046;73.266;2022-07-10T02:36:27;100049.59;;;24.82;52.80
59168;BME280;44948;55.046;73.266;2022-07-10T02:38:10;100018.63;;;24.59;52.58
59168;BME280;44948;55.046;73.266;2022-07-10T02:39:58;100009.97;;;24.57;52.60
59168;BME280;44948;55.046;73.266;2022-07-10T02:41:43;100048.78;;;24.88;52.30
59168;BME280;44948;55.046;73.266;2022-07-10T02:43:26;100057.44;;;24.90;52.72
59168;BME280;44948;55.046;73.266;2022-07-10T02:45:08;100060.31;;;24.95;52.96
59168;BME280;44948;55.046;73.266;2022-07-10T02:46:51;100022.38;;;24.71;52.22
59168;BME280;44948;55.046;73.266;2022-07-10T02:48:33;99993.03;;;24.63;52.93
59168;BME280;44948;55.046;73.266;2022-07-10T02:50:15;99980.66;;;24.62;52.40
59168;BME280;44948;55.046;73.266;2022-07-10T02:52:00;100017.00;;;24.85;52.63
59168;BME280;44948;55.046;73.266;2022-07-10T02:53:45;99991.00;;;24.78;53.02
59168;BME280;44948;55.046;73.266;2022-07-10T02:55:30;100063.19;;;25.26;52.21
59168;BME280;44948;55.046;73.266;2022-07-10T02:57:16;100056.16;;;25.25;52.90
59168;BME280;44948;55.046;73.266;2022-07-10T02:58:58;100067.97;;;24.98;53.30
59168;BME280;44948;55.046;73.266;2022-07-10T03:00:41;100034.75;;;25.05;52.67
59168;BME280;44948;55.046;73.266;2022-07-10T03:02:27;100074.75;;;25.40;51.97
59168;BME280;44948;55.046;73.266;2022-07-10T03:04:09;100023.56;;;25.22;51.68
59168;BME280;44948;55.046;73.266;2022-07-10T03:05:54;100030.13;;;25.32;52.04
59168;BME280;44948;55.046;73.266;2022-07-10T03:07:36;100041.50;;;25.41;52.63
59168;BME280;44948;55.046;73.266;2022-07-10T03:09:19;100067.88;;;25.64;52.71
59168;BME280;44948;55.046;73.266;2022-07-10T03:11:01;100061.44;;;25.72;53.52
59168;BME280;44948;55.046;73.266;2022-07-10T03:12:44;100061.63;;;25.77;52.04
59168;BME280;44948;55.046;73.266;2022-07-10T03:14:29;100064.28;;;25.83;50.90
59168;BME280;44948;55.046;73.266;2022-07-10T03:16:11;100070.88;;;25.87;51.36
59168;BME280;44948;55.046;73.266;2022-07-10T03:17:54;100043.66;;;25.77;51.24
59168;BME280;44948;55.046;73.266;2022-07-10T03:19:39;100061.97;;;25.93;51.66
59168;BME280;44948;55.046;73.266;2022-07-10T03:21:21;99988.81;;;25.47;50.01
59168;BME280;44948;55.046;73.266;2022-07-10T03:23:04;100019.69;;;25.76;50.25
59168;BME280;44948;55.046;73.266;2022-07-10T03:24:48;100058.22;;;26.01;50.32
59168;BME280;44948;55.046;73.266;2022-07-10T03:26:31;100055.13;;;26.04;49.44
59168;BME280;44948;55.046;73.266;2022-07-10T03:28:15;100065.03;;;26.10;49.60
59168;BME280;44948;55.046;73.266;2022-07-10T03:29:58;99973.91;;;25.51;50.12
59168;BME280;44948;55.046;73.266;2022-07-10T03:31:41;100011.81;;;25.81;50.45
59168;BME280;44948;55.046;73.266;2022-07-10T03:33:30;100040.66;;;26.05;50.19
59168;BME280;44948;55.046;73.266;2022-07-10T03:35:12;100060.00;;;26.20;49.23
59168;BME280;44948;55.046;73.266;2022-07-10T03:36:57;100055.25;;;26.22;49.78
59168;BME280;44948;55.046;73.266;2022-07-10T03:38:43;100065.34;;;26.27;51.10
59168;BME280;44948;55.046;73.266;2022-07-10T03:40:33;100060.34;;;26.31;49.88
59168;BME280;44948;55.046;73.266;2022-07-10T03:42:15;99993.09;;;25.99;51.19
59168;BME280;44948;55.046;73.266;2022-07-10T03:44:00;99981.19;;;25.88;48.40
59168;BME280;44948;55.046;73.266;2022-07-10T03:45:45;100059.44;;;26.43;48.15
59168;BME280;44948;55.046;73.266;2022-07-10T03:47:28;100061.25;;;26.49;48.07
59168;BME280;44948;55.046;73.266;2022-07-10T03:49:10;100028.31;;;26.29;47.35
59168;BME280;44948;55.046;73.266;2022-07-10T03:50:52;100048.25;;;26.46;48.22
59168;BME280;44948;55.046;73.266;2022-07-10T03:52:35;100063.34;;;26.16;49.43
59168;BME280;44948;55.046;73.266;2022-07-10T03:54:26;100006.72;;;26.11;49.17
59168;BME280;44948;55.046;73.266;2022-07-10T03:56:11;100045.84;;;26.38;47.93
59168;BME280;44948;55.046;73.266;2022-07-10T03:58:13;100061.00;;;26.57;47.52
59168;BME280;44948;55.046;73.266;2022-07-10T04:00:01;100003.94;;;26.24;47.97
59168;BME280;44948;55.046;73.266;2022-07-10T04:01:53;100051.09;;;26.51;47.60
59168;BME280;44948;55.046;73.266;2022-07-10T04:03:36;100070.03;;;26.70;48.44
59168;BME280;44948;55.046;73.266;2022-07-10T04:05:18;100068.13;;;26.77;48.79
59168;BME280;44948;55.046;73.266;2022-07-10T04:07:01;100068.97;;;26.77;48.29
59168;BME280;44948;55.046;73.266;2022-07-10T04:08:46;100028.91;;;26.63;47.84
59168;BME280;44948;55.046;73.266;2022-07-10T04:10:30;100013.06;;;26.48;47.37
59168;BME280;44948;55.046;73.266;2022-07-10T04:12:13;100001.50;;;26.47;45.83
59168;BME280;44948;55.046;73.266;2022-07-10T04:13:56;100075.50;;;26.56;46.64
59168;BME280;44948;55.046;73.266;2022-07-10T04:15:39;100072.47;;;26.78;46.51
59168;BME280;44948;55.046;73.266;2022-07-10T04:17:21;100006.72;;;26.42;45.66
59168;BME280;44948;55.046;73.266;2022-07-10T04:19:07;100029.53;;;26.65;46.32
59168;BME280;44948;55.046;73.266;2022-07-10T04:20:49;100050.56;;;26.74;46.18
59168;BME280;44948;55.046;73.266;2022-07-10T04:22:32;100047.47;;;26.71;46.32
59168;BME280;44948;55.046;73.266;2022-07-10T04:24:15;100063.34;;;26.79;46.71
59168;BME280;44948;55.046;73.266;2022-07-10T04:25:57;100075.66;;;26.93;46.62
59168;BME280;44948;55.046;73.266;2022-07-10T04:27:40;100079.56;;;26.97;46.04
59168;BME280;44948;55.046;73.266;2022-07-10T04:29:22;100077.00;;;27.02;46.42
59168;BME280;44948;55.046;73.266;2022-07-10T04:31:07;100062.13;;;27.00;46.42
59168;BME280;44948;55.046;73.266;2022-07-10T04:32:50;100086.03;;;27.14;45.84
59168;BME280;44948;55.046;73.266;2022-07-10T04:34:35;100091.13;;;27.23;46.48
59168;BME280;44948;55.046;73.266;2022-07-10T04:36:17;100049.06;;;27.03;46.24
59168;BME280;44948;55.046;73.266;2022-07-10T04:38:07;100075.75;;;27.30;46.81
59168;BME280;44948;55.046;73.266;2022-07-10T04:39:50;100070.75;;;27.33;44.47
59168;BME280;44948;55.046;73.266;2022-07-10T04:41:35;100081.47;;;27.40;44.79
59168;BME280;44948;55.046;73.266;2022-07-10T04:43:20;100041.69;;;27.17;44.92
59168;BME280;44948;55.046;73.266;2022-07-10T04:45:03;100083.03;;;27.48;44.93
59168;BME280;44948;55.046;73.266;2022-07-10T04:46:48;100084.31;;;27.45;45.75
59168;BME280;44948;55.046;73.266;2022-07-10T04:48:30;100072.34;;;27.41;45.73
59168;BME280;44948;55.046;73.266;2022-07-10T04:50:13;100066.88;;;27.48;45.64
59168;BME280;44948;55.046;73.266;2022-07-10T04:51:57;100040.53;;;27.31;44.81
59168;BME280;44948;55.046;73.266;2022-07-10T04:53:40;100069.06;;;27.57;46.29
59168;BME280;44948;55.046;73.266;2022-07-10T04:55:22;100048.25;;;27.46;44.12
59168;BME280;44948;55.046;73.266;2022-07-10T04:57:07;100075.41;;;27.63;43.44
59168;BME280;44948;55.046;73.266;2022-07-10T04:58:51;100066.06;;;27.65;42.25
59168;BME280;44948;55.046;73.266;2022-07-10T05:00:33;100081.94;;;27.73;42.05
59168;BME280;44948;55.046;73.266;2022-07-10T05:02:18;100044.41;;;27.54;42.30
59168;BME280;44948;55.046;73.266;2022-07-10T05:04:04;100086.41;;;27.80;42.33
59168;BME280;44948;55.046;73.266;2022-07-10T05:05:49;100082.66;;;27.81;42.13
59168;BME280;44948;55.046;73.266;2022-07-10T05:07:34;100065.31;;;27.76;42.48
59168;BME280;44948;55.046;73.266;2022-07-10T05:09:49;100073.16;;;27.78;42.46
59168;BME280;44948;55.046;73.266;2022-07-10T05:11:36;100062.16;;;27.80;41.41
59168;BME280;44948;55.046;73.266;2022-07-10T05:13:18;100062.28;;;27.85;40.61
59168;BME280;44948;55.046;73.266;2022-07-10T05:15:01;100064.72;;;27.93;41.00
59168;BME280;44948;55.046;73.266;2022-07-10T05:16:47;100069.41;;;27.97;40.50
59168;BME280;44948;55.046;73.266;2022-07-10T05:18:32;99993.63;;;27.57;42.27
59168;BME280;44948;55.046;73.266;2022-07-10T05:20:17;100065.38;;;28.07;41.68
59168;BME280;44948;55.046;73.266;2022-07-10T05:22:00;99990.59;;;27.65;40.91
59168;BME280;44948;55.046;73.266;2022-07-10T05:23:45;100064.22;;;28.14;40.76
59168;BME280;44948;55.046;73.266;2022-07-10T05:25:27;100068.59;;;27.79;41.71
59168;BME280;44948;55.046;73.266;2022-07-10T05:27:11;100021.13;;;27.77;41.29
59168;BME280;44948;55.046;73.266;2022-07-10T05:28:54;100071.84;;;28.17;40.37
59168;BME280;44948;55.046;73.266;2022-07-10T05:30:39;99989.03;;;27.76;40.23
59168;BME280;44948;55.046;73.266;2022-07-10T05:32:24;100060.53;;;28.27;40.25
59168;BME280;44948;55.046;73.266;2022-07-10T05:34:07;100033.84;;;28.07;41.25
59168;BME280;44948;55.046;73.266;2022-07-10T05:35:49;100032.44;;;28.16;41.52
59168;BME280;44948;55.046;73.266;2022-07-10T05:37:37;100008.97;;;28.05;40.42
59168;BME280;44948;55.046;73.266;2022-07-10T05:39:19;100063.16;;;28.45;39.66
59168;BME280;44948;55.046;73.266;2022-07-10T05:41:02;100017.00;;;28.23;38.84
59168;BME280;44948;55.046;73.266;2022-07-10T05:42:45;100058.91;;;28.38;38.42
59168;BME280;44948;55.046;73.266;2022-07-10T05:44:27;100053.88;;;28.41;38.91
59168;BME280;44948;55.046;73.266;2022-07-10T05:46:09;100064.38;;;28.49;39.99
59168;BME280;44948;55.046;73.266;2022-07-10T05:47:52;100061.56;;;28.56;41.43
59168;BME280;44948;55.046;73.266;2022-07-10T05:49:34;100050.16;;;28.54;41.04
59168;BME280;44948;55.046;73.266;2022-07-10T05:51:16;100038.22;;;28.50;40.99
59168;BME280;44948;55.046;73.266;2022-07-10T05:52:59;100060.19;;;28.65;40.17
59168;BME280;44948;55.046;73.266;2022-07-10T05:54:47;100002.72;;;28.34;40.10
59168;BME280;44948;55.046;73.266;2022-07-10T05:56:32;100030.69;;;28.52;39.39
59168;BME280;44948;55.046;73.266;2022-07-10T05:58:17;100036.09;;;28.52;39.70
59168;BME280;44948;55.046;73.266;2022-07-10T06:00:00;100060.69;;;28.74;39.63
59168;BME280;44948;55.046;73.266;2022-07-10T06:01:42;100063.13;;;28.75;38.53
59168;BME280;44948;55.046;73.266;2022-07-10T06:03:24;100056.53;;;28.71;38.15
59168;BME280;44948;55.046;73.266;2022-07-10T06:05:08;100030.22;;;28.55;38.34
59168;BME280;44948;55.046;73.266;2022-07-10T06:06:54;100057.97;;;28.74;38.07
59168;BME280;44948;55.046;73.266;2022-07-10T06:08:36;100055.94;;;28.69;38.34
59168;BME280;44948;55.046;73.266;2022-07-10T06:10:19;100066.06;;;28.74;38.49
59168;BME280;44948;55.046;73.266;2022-07-10T06:12:01;99987.13;;;28.25;38.14
59168;BME280;44948;55.046;73.266;2022-07-10T06:13:43;100065.34;;;28.36;38.82
59168;BME280;44948;55.046;73.266;2022-07-10T06:15:25;100046.41;;;28.55;38.63
59168;BME280;44948;55.046;73.266;2022-07-10T06:17:11;100058.19;;;28.72;39.22
59168;BME280;44948;55.046;73.266;2022-07-10T06:18:53;100062.31;;;28.86;39.30
59168;BME280;44948;55.046;73.266;2022-07-10T06:20:36;100036.84;;;28.82;37.63
59168;BME280;44948;55.046;73.266;2022-07-10T06:22:18;100057.16;;;28.97;37.68
59168;BME280;44948;55.046;73.266;2022-07-10T06:24:12;100050.22;;;29.01;36.68
59168;BME280;44948;55.046;73.266;2022-07-10T06:25:55;100056.00;;;29.04;35.58
59168;BME280;44948;55.046;73.266;2022-07-10T06:27:38;100041.53;;;28.99;36.44
59168;BME280;44948;55.046;73.266;2022-07-10T06:29:20;100043.66;;;28.97;35.36
59168;BME280;44948;55.046;73.266;2022-07-10T06:31:35;100061.97;;;28.94;35.62
59168;BME280;44948;55.046;73.266;2022-07-10T06:33:26;99999.06;;;28.59;36.07
59168;BME280;44948;55.046;73.266;2022-07-10T06:35:09;100049.81;;;28.50;36.51
59168;BME280;44948;55.046;73.266;2022-07-10T06:36:54;100038.94;;;28.57;35.73
59168;BME280;44948;55.046;73.266;2022-07-10T06:38:37;99977.34;;;28.12;35.00
59168;BME280;44948;55.046;73.266;2022-07-10T06:40:29;100047.63;;;28.59;35.97
59168;BME280;44948;55.046;73.266;2022-07-10T06:42:15;99971.69;;;28.02;35.62
59168;BME280;44948;55.046;73.266;2022-07-10T06:44:06;99989.41;;;28.10;35.90
59168;BME280;44948;55.046;73.266;2022-07-10T06:45:48;100052.19;;;28.58;36.56
59168;BME280;44948;55.046;73.266;2022-07-10T06:47:30;100020.38;;;28.49;35.92
59168;BME280;44948;55.046;73.266;2022-07-10T06:49:35;100010.41;;;28.49;36.16
59168;BME280;44948;55.046;73.266;2022-07-10T06:51:17;100046.13;;;28.75;35.57
59168;BME280;44948;55.046;73.266;2022-07-10T06:53:03;100031.66;;;28.69;36.12
59168;BME280;44948;55.046;73.266;2022-07-10T07:31:21;100022.66;;;28.99;34.14
59168;BME280;44948;55.046;73.266;2022-07-10T07:33:07;100043.41;;;28.86;34.17
59168;BME280;44948;55.046;73.266;2022-07-10T07:34:55;99937.38;;;28.09;34.38
59168;BME280;44948;55.046;73.266;2022-07-10T07:36:41;100032.41;;;28.76;34.51
59168;BME280;44948;55.046;73.266;2022-07-10T07:38:26;99976.63;;;28.47;34.01
59168;BME280;44948;55.046;73.266;2022-07-10T07:40:13;99983.56;;;28.66;35.46
59168;BME280;44948;55.046;73.266;2022-07-10T07:42:00;100025.34;;;28.99;34.09
59168;BME280;44948;55.046;73.266;2022-07-10T07:43:42;99988.00;;;28.72;33.32
59168;BME280;44948;55.046;73.266;2022-07-10T07:45:26;100014.31;;;28.77;34.06
59168;BME280;44948;55.046;73.266;2022-07-10T07:47:08;99963.72;;;28.49;34.86
59168;BME280;44948;55.046;73.266;2022-07-10T07:48:57;99962.34;;;28.58;33.99
59168;BME280;44948;55.046;73.266;2022-07-10T07:50:39;100034.78;;;29.08;33.31
59168;BME280;44948;55.046;73.266;2022-07-10T07:52:21;100025.63;;;29.09;33.57
59168;BME280;44948;55.046;73.266;2022-07-10T07:54:04;99997.28;;;29.00;33.59
59168;BME280;44948;55.046;73.266;2022-07-10T07:55:47;100029.94;;;29.33;32.42
59168;BME280;44948;55.046;73.266;2022-07-10T07:57:29;100021.09;;;29.38;32.85
59168;BME280;44948;55.046;73.266;2022-07-10T07:59:11;100020.75;;;29.46;32.75
59168;BME280;44948;55.046;73.266;2022-07-10T08:01:01;100024.13;;;29.53;32.17
59168;BME280;44948;55.046;73.266;2022-07-10T08:02:43;100030.47;;;29.59;32.23
59168;BME280;44948;55.046;73.266;2022-07-10T08:04:28;100031.44;;;29.64;32.47
59168;BME280;44948;55.046;73.266;2022-07-10T08:06:13;100032.25;;;29.65;32.20
59168;BME280;44948;55.046;73.266;2022-07-10T08:07:59;100023.16;;;29.71;31.68
59168;BME280;44948;55.046;73.266;2022-07-10T08:09:46;100018.81;;;29.70;31.62
59168;BME280;44948;55.046;73.266;2022-07-10T08:11:31;100028.22;;;29.79;31.93
59168;BME280;44948;55.046;73.266;2022-07-10T08:13:13;100032.72;;;29.90;32.71
59168;BME280;44948;55.046;73.266;2022-07-10T08:14:55;100016.88;;;29.94;32.85
59168;BME280;44948;55.046;73.266;2022-07-10T08:16:40;100030.44;;;30.10;33.46
59168;BME280;44948;55.046;73.266;2022-07-10T08:18:22;99927.97;;;29.40;32.95
59168;BME280;44948;55.046;73.266;2022-07-10T08:20:06;100025.91;;;29.99;33.30
59168;BME280;44948;55.046;73.266;2022-07-10T08:21:49;99978.19;;;29.65;33.42
59168;BME280;44948;55.046;73.266;2022-07-10T08:23:31;100018.94;;;30.03;33.21
59168;BME280;44948;55.046;73.266;2022-07-10T08:25:14;100013.19;;;29.71;33.73
59168;BME280;44948;55.046;73.266;2022-07-10T08:26:56;100017.53;;;30.01;33.38
59168;BME280;44948;55.046;73.266;2022-07-10T08:28:41;100022.91;;;30.12;33.54
59168;BME280;44948;55.046;73.266;2022-07-10T08:30:23;99998.94;;;30.04;32.97
59168;BME280;44948;55.046;73.266;2022-07-10T08:32:08;100021.00;;;30.25;32.29
59168;BME280;44948;55.046;73.266;2022-07-10T08:33:51;100024.84;;;30.29;32.41
59168;BME280;44948;55.046;73.266;2022-07-10T08:35:34;100003.69;;;30.26;32.67
59168;BME280;44948;55.046;73.266;2022-07-10T08:37:19;99983.28;;;30.06;32.61
59168;BME280;44948;55.046;73.266;2022-07-10T08:39:04;100010.75;;;30.27;33.06
59168;BME280;44948;55.046;73.266;2022-07-10T08:40:47;99952.47;;;29.91;32.49
59168;BME280;44948;55.046;73.266;2022-07-10T08:42:32;100012.72;;;30.31;32.99
59168;BME280;44948;55.046;73.266;2022-07-10T08:44:14;99992.28;;;30.24;33.66
59168;BME280;44948;55.046;73.266;2022-07-10T08:45:58;100004.53;;;30.43;32.85
59168;BME280;44948;55.046;73.266;2022-07-10T08:47:42;100016.31;;;30.54;32.37
59168;BME280;44948;55.046;73.266;2022-07-10T08:49:30;99985.97;;;30.35;31.91
59168;BME280;44948;55.046;73.266;2022-07-10T08:51:34;99943.59;;;29.78;32.09
59168;BME280;44948;55.046;73.266;2022-07-10T08:55:04;100012.84;;;29.96;32.50
59168;BME280;44948;55.046;73.266;2022-07-10T08:56:47;100023.72;;;29.84;32.56
59168;BME280;44948;55.046;73.266;2022-07-10T08:58:32;100004.66;;;29.63;32.20
59168;BME280;44948;55.046;73.266;2022-07-10T09:00:15;99961.34;;;29.34;32.91
59168;BME280;44948;55.046;73.266;2022-07-10T09:01:58;100000.06;;;29.63;32.93
59168;BME280;44948;55.046;73.266;2022-07-10T09:03:46;99952.47;;;29.50;33.32
59168;BME280;44948;55.046;73.266;2022-07-10T09:05:31;99954.34;;;29.62;33.28
59168;BME280;44948;55.046;73.266;2022-07-10T09:07:16;100015.13;;;30.16;32.70
59168;BME280;44948;55.046;73.266;2022-07-10T09:09:04;100024.84;;;30.29;33.75
59168;BME280;44948;55.046;73.266;2022-07-10T09:11:12;100006.06;;;30.39;33.04
59168;BME280;44948;55.046;73.266;2022-07-10T09:13:01;99962.13;;;30.03;33.05
59168;BME280;44948;55.046;73.266;2022-07-10T09:14:43;100018.94;;;30.32;32.76
59168;BME280;44948;55.046;73.266;2022-07-10T09:16:31;100009.09;;;30.26;32.73
59168;BME280;44948;55.046;73.266;2022-07-10T09:18:23;100013.59;;;30.37;32.69
59168;BME280;44948;55.046;73.266;2022-07-10T09:20:08;100007.22;;;30.43;33.14
59168;BME280;44948;55.046;73.266;2022-07-10T09:22:09;99993.22;;;30.46;33.71
59168;BME280;44948;55.046;73.266;2022-07-10T09:23:59;100020.91;;;30.70;33.16
59168;BME280;44948;55.046;73.266;2022-07-10T09:25:47;100013.75;;;30.76;31.93
59168;BME280;44948;55.046;73.266;2022-07-10T09:27:30;100009.47;;;30.80;32.66
59168;BME280;44948;55.046;73.266;2022-07-10T09:29:12;100015.69;;;30.80;32.26
59168;BME280;44948;55.046;73.266;2022-07-10T09:30:59;99989.94;;;30.61;32.14
59168;BME280;44948;55.046;73.266;2022-07-10T09:32:47;100006.63;;;30.58;31.97
59168;BME280;44948;55.046;73.266;2022-07-10T09:34:39;100006.00;;;30.51;33.07
59168;BME280;44948;55.046;73.266;2022-07-10T09:36:25;100004.09;;;30.51;33.43
59168;BME280;44948;55.046;73.266;2022-07-10T09:38:08;100012.78;;;30.53;32.48
59168;BME280;44948;55.046;73.266;2022-07-10T09:39:59;100008.31;;;30.42;32.20